createdAt,value
2017-12-11T00:00:53.794Z,1.77
2017-12-11T00:03:22.182Z,2.00
2017-12-11T00:05:49.884Z,1.95
2017-12-11T00:08:17.508Z,2.90
2017-12-11T00:10:45.149Z,1.67
2017-12-11T00:13:12.803Z,2.80
2017-12-11T00:15:40.484Z,1.77
2017-12-11T00:18:08.361Z,2.00
2017-12-11T00:20:35.999Z,1.62
2017-12-11T00:23:04.389Z,2.70
2017-12-11T00:25:32.058Z,3.50
2017-12-11T00:27:59.685Z,2.20
2017-12-11T00:30:27.339Z,3.05
2017-12-11T00:32:54.957Z,2.42
2017-12-11T00:35:23.346Z,2.85
2017-12-11T00:37:51.001Z,2.65
2017-12-11T00:40:18.679Z,4.10
2017-12-11T00:42:46.323Z,3.00
2017-12-11T00:45:13.957Z,6.90
2017-12-11T00:47:41.576Z,4.28
2017-12-11T00:50:09.424Z,2.42
2017-12-11T00:52:37.045Z,3.62
2017-12-11T00:55:05.459Z,4.93
2017-12-11T00:57:33.092Z,3.28
2017-12-11T01:00:00.710Z,3.15
2017-12-11T01:02:28.398Z,2.72
2017-12-11T01:04:56.029Z,2.95
2017-12-11T01:07:23.684Z,2.80
2017-12-11T01:09:51.302Z,5.45
2017-12-11T01:12:18.911Z,2.95
2017-12-11T01:14:46.566Z,3.30
2017-12-11T01:17:14.975Z,4.37
2017-12-11T01:19:42.982Z,4.93
2017-12-11T01:22:10.602Z,2.67
2017-12-11T01:24:40.334Z,2.72
2017-12-11T01:27:08.774Z,2.90
2017-12-11T01:29:36.449Z,3.60
2017-12-11T01:32:04.869Z,3.33
2017-12-11T01:34:32.514Z,2.50
2017-12-11T01:37:00.166Z,3.28
2017-12-11T01:39:27.817Z,2.47
2017-12-11T01:41:55.430Z,2.47
2017-12-11T01:44:23.130Z,4.10
2017-12-11T01:46:50.746Z,3.22
2017-12-11T01:49:18.393Z,2.47
2017-12-11T01:51:46.050Z,4.68
2017-12-11T01:54:13.665Z,3.25
2017-12-11T01:56:41.328Z,3.25
2017-12-11T01:59:09.091Z,3.15
2017-12-11T02:01:36.772Z,2.15
2017-12-11T02:04:05.189Z,2.83
2017-12-11T02:06:32.814Z,3.35
2017-12-11T02:09:00.502Z,3.42
2017-12-11T02:11:28.288Z,3.10
2017-12-11T02:13:56.666Z,4.00
2017-12-11T02:16:24.324Z,3.53
2017-12-11T02:18:51.935Z,1.30
2017-12-11T02:21:20.371Z,2.12
2017-12-11T02:23:48.210Z,1.73
2017-12-11T02:26:15.830Z,2.80
2017-12-11T02:28:44.502Z,1.17
2017-12-11T02:31:12.165Z,3.58
2017-12-11T02:33:40.079Z,1.35
2017-12-11T02:36:08.574Z,3.20
2017-12-11T02:38:36.380Z,3.45
2017-12-11T02:41:04.807Z,1.08
2017-12-11T02:43:32.421Z,1.80
2017-12-11T02:46:00.081Z,1.65
2017-12-11T02:48:27.769Z,4.40
2017-12-11T02:50:55.486Z,1.42
2017-12-11T02:53:23.155Z,2.20
2017-12-11T02:55:50.766Z,2.22
2017-12-11T02:58:18.450Z,2.12
2017-12-11T03:00:46.075Z,2.90
2017-12-11T03:03:13.727Z,3.03
2017-12-11T03:05:41.723Z,1.70
2017-12-11T03:08:10.125Z,1.10
2017-12-11T03:10:37.795Z,2.37
2017-12-11T03:13:05.406Z,1.17
2017-12-11T03:15:33.053Z,2.10
2017-12-11T03:18:01.482Z,1.35
2017-12-11T03:20:29.232Z,1.70
2017-12-11T03:22:56.912Z,2.03
2017-12-11T03:25:24.535Z,1.55
2017-12-11T03:27:52.205Z,5.15
2017-12-11T03:30:19.847Z,1.60
2017-12-11T03:32:47.500Z,1.15
2017-12-11T03:35:15.193Z,1.75
2017-12-11T03:37:43.631Z,2.25
2017-12-11T03:40:11.234Z,2.12
2017-12-11T03:42:38.870Z,1.80
2017-12-11T03:45:06.491Z,1.95
2017-12-11T03:47:34.185Z,2.35
2017-12-11T03:50:01.811Z,3.67
2017-12-11T03:52:29.637Z,1.58
2017-12-11T03:54:57.310Z,3.03
2017-12-11T03:57:24.952Z,1.50
2017-12-11T03:59:52.601Z,1.90
2017-12-11T04:02:20.998Z,1.40
2017-12-11T04:04:48.737Z,1.00
2017-12-11T04:07:16.457Z,0.70
2017-12-11T04:09:44.097Z,1.00
2017-12-11T04:12:11.742Z,1.25
2017-12-11T04:14:39.422Z,1.52
2017-12-11T04:17:07.871Z,1.77
2017-12-11T04:19:35.519Z,1.17
2017-12-11T04:22:03.911Z,3.60
2017-12-11T04:24:31.597Z,1.62
2017-12-11T04:26:59.353Z,1.35
2017-12-11T04:29:26.996Z,3.47
2017-12-11T04:31:54.640Z,1.95
2017-12-11T04:34:22.245Z,1.50
2017-12-11T04:36:49.884Z,2.50
2017-12-11T04:39:17.512Z,1.23
2017-12-11T04:41:45.906Z,1.98
2017-12-11T04:44:14.408Z,1.95
2017-12-11T04:46:42.037Z,1.60
2017-12-11T04:49:09.682Z,1.48
2017-12-11T04:51:37.298Z,1.33
2017-12-11T04:54:05.727Z,1.62
2017-12-11T04:56:33.375Z,1.50
2017-12-11T04:59:00.995Z,2.00
2017-12-11T05:01:28.746Z,1.42
2017-12-11T05:03:56.365Z,2.20
2017-12-11T05:06:23.998Z,1.40
2017-12-11T05:08:57.416Z,1.98
2017-12-11T05:11:25.182Z,1.73
2017-12-11T05:13:52.837Z,1.45
2017-12-11T05:16:20.442Z,1.62
2017-12-11T05:18:48.334Z,1.98
2017-12-11T05:21:15.977Z,1.42
2017-12-11T05:23:43.613Z,1.80
2017-12-11T05:26:11.261Z,5.35
2017-12-11T05:28:38.918Z,1.92
2017-12-11T05:31:06.527Z,2.30
2017-12-11T05:33:34.182Z,1.48
2017-12-11T05:36:01.806Z,2.30
2017-12-11T05:38:29.498Z,1.85
2017-12-11T05:40:57.118Z,1.50
2017-12-11T05:43:24.753Z,1.62
2017-12-11T05:45:52.449Z,1.80
2017-12-11T05:48:20.095Z,2.17
2017-12-11T05:50:47.832Z,3.72
2017-12-11T05:53:15.471Z,6.18
2017-12-11T05:55:43.130Z,2.30
2017-12-11T05:58:10.828Z,2.90
2017-12-11T06:00:39.583Z,3.97
2017-12-11T06:03:08.235Z,3.00
2017-12-11T06:05:36.642Z,2.20
2017-12-11T06:08:04.280Z,1.55
2017-12-11T06:10:31.943Z,2.45
2017-12-11T06:12:59.710Z,5.40
2017-12-11T06:15:27.366Z,4.05
2017-12-11T06:17:55.017Z,4.47
2017-12-11T06:20:22.706Z,2.90
2017-12-11T06:22:51.133Z,3.85
2017-12-11T06:25:18.749Z,7.57
2017-12-11T06:27:46.436Z,5.12
2017-12-11T06:30:14.054Z,3.45
2017-12-11T06:32:41.775Z,4.18
2017-12-11T06:35:09.472Z,1.92
2017-12-11T06:37:37.106Z,2.45
2017-12-11T06:40:04.749Z,2.17
2017-12-11T06:42:32.367Z,1.85
2017-12-11T06:44:59.978Z,2.30
2017-12-11T06:47:28.703Z,2.42
2017-12-11T06:49:56.314Z,2.55
2017-12-11T06:52:24.565Z,2.50
2017-12-11T06:54:52.965Z,2.20
2017-12-11T06:57:20.573Z,1.40
2017-12-11T06:59:49.001Z,1.55
2017-12-11T07:02:16.619Z,2.58
2017-12-11T07:04:44.318Z,2.65
2017-12-11T07:07:11.939Z,1.98
2017-12-11T07:09:39.674Z,2.80
2017-12-11T07:12:07.331Z,2.08
2017-12-11T07:14:35.949Z,1.62
2017-12-11T07:17:03.610Z,2.83
2017-12-11T07:19:31.222Z,2.85
2017-12-11T07:21:58.834Z,2.10
2017-12-11T07:24:26.474Z,2.67
2017-12-11T07:26:54.078Z,2.50
2017-12-11T07:29:22.486Z,2.50
2017-12-11T07:31:50.100Z,2.75
2017-12-11T07:34:17.909Z,3.60
2017-12-11T07:36:45.558Z,3.37
2017-12-11T07:39:13.198Z,2.70
2017-12-11T07:41:40.843Z,2.42
2017-12-11T07:44:08.602Z,2.80
2017-12-11T07:46:36.262Z,2.00
2017-12-11T07:49:04.650Z,2.90
2017-12-11T07:51:32.258Z,6.05
2017-12-11T07:53:59.909Z,13.93
2017-12-11T07:56:27.530Z,14.13
2017-12-11T07:58:55.214Z,20.00
2017-12-11T08:01:22.853Z,14.32
2017-12-11T08:03:50.471Z,7.43
2017-12-11T08:06:18.345Z,10.57
2017-12-11T08:08:45.974Z,12.75
2017-12-11T08:11:13.634Z,11.02
2017-12-11T08:13:41.262Z,10.07
2017-12-11T08:16:08.919Z,10.18
2017-12-11T08:18:36.542Z,11.18
2017-12-11T08:21:04.192Z,11.65
2017-12-11T08:23:31.819Z,17.30
2017-12-11T08:25:59.639Z,9.52
2017-12-11T08:28:28.258Z,2.87
2017-12-11T08:30:55.893Z,2.97
2017-12-11T08:33:23.546Z,3.45
2017-12-11T08:35:51.198Z,2.72
2017-12-11T08:38:18.868Z,2.40
2017-12-11T08:40:46.511Z,2.45
2017-12-11T08:43:14.139Z,5.15
2017-12-11T08:45:41.820Z,2.25
2017-12-11T08:48:09.647Z,2.25
2017-12-11T08:50:37.300Z,2.62
2017-12-11T08:53:04.927Z,5.70
2017-12-11T08:55:32.547Z,2.42
2017-12-11T08:58:00.253Z,3.15
2017-12-11T09:00:27.887Z,2.20
2017-12-11T09:02:55.499Z,2.55
2017-12-11T09:05:23.207Z,2.70
2017-12-11T09:07:50.850Z,2.12
2017-12-11T09:10:18.692Z,1.80
2017-12-11T09:12:46.339Z,2.00
2017-12-11T09:15:13.974Z,3.35
2017-12-11T09:17:41.624Z,1.90
2017-12-11T09:20:09.362Z,2.60
2017-12-11T09:22:37.026Z,5.62
2017-12-11T09:25:04.679Z,6.65
2017-12-11T09:27:32.290Z,3.40
2017-12-11T09:29:59.943Z,2.62
2017-12-11T09:32:27.784Z,3.08
2017-12-11T09:34:55.399Z,2.55
2017-12-11T09:37:23.052Z,4.72
2017-12-11T09:39:50.668Z,3.47
2017-12-11T09:42:19.353Z,2.90
2017-12-11T09:44:46.969Z,2.58
2017-12-11T09:47:14.593Z,5.35
2017-12-11T09:49:42.238Z,5.03
2017-12-11T09:52:09.936Z,3.00
2017-12-11T09:54:38.581Z,3.17
2017-12-11T09:57:06.211Z,4.03
2017-12-11T09:59:33.831Z,3.83
2017-12-11T10:02:01.498Z,2.08
2017-12-11T10:04:29.107Z,2.60
2017-12-11T10:06:56.764Z,4.03
2017-12-11T10:09:24.386Z,1.98
2017-12-11T10:11:52.756Z,4.30
2017-12-11T10:14:20.446Z,2.55
2017-12-11T10:16:48.226Z,2.55
2017-12-11T10:19:15.907Z,2.62
2017-12-11T10:21:43.535Z,3.05
2017-12-11T10:24:11.934Z,2.85
2017-12-11T10:26:39.714Z,4.78
2017-12-11T10:29:07.362Z,3.87
2017-12-11T10:31:35.019Z,3.95
2017-12-11T10:34:02.642Z,5.40
2017-12-11T10:36:30.256Z,3.20
2017-12-11T10:38:58.045Z,2.67
2017-12-11T10:41:26.543Z,3.15
2017-12-11T10:43:54.191Z,3.05
2017-12-11T10:46:21.817Z,3.85
2017-12-11T10:48:49.437Z,3.35
2017-12-11T10:51:17.088Z,3.12
2017-12-11T10:53:44.729Z,3.50
2017-12-11T10:56:12.410Z,2.60
2017-12-11T10:58:40.038Z,3.58
2017-12-11T11:01:07.843Z,3.80
2017-12-11T11:03:35.517Z,5.12
2017-12-11T11:06:03.129Z,2.40
2017-12-11T11:08:32.362Z,3.17
2017-12-11T11:10:59.978Z,3.12
2017-12-11T11:13:27.626Z,3.20
2017-12-11T11:15:55.416Z,4.22
2017-12-11T11:18:23.038Z,4.53
2017-12-11T11:20:50.690Z,3.37
2017-12-11T11:23:18.386Z,3.42
2017-12-11T11:25:46.774Z,3.80
2017-12-11T11:28:14.420Z,3.45
2017-12-11T11:30:42.034Z,4.28
2017-12-11T11:33:10.456Z,4.50
2017-12-11T11:35:38.258Z,4.10
2017-12-11T11:38:06.637Z,3.65
2017-12-11T11:40:34.278Z,3.80
2017-12-11T11:43:02.674Z,5.18
2017-12-11T11:45:30.340Z,3.50
2017-12-11T11:47:57.966Z,3.47
2017-12-11T11:50:25.577Z,3.85
2017-12-11T11:52:53.996Z,3.47
2017-12-11T11:55:21.641Z,3.33
2017-12-11T11:57:49.426Z,3.67
2017-12-11T12:00:17.910Z,3.30
2017-12-11T12:02:45.521Z,4.05
2017-12-11T12:05:13.174Z,3.42
2017-12-11T12:07:40.781Z,2.83
2017-12-11T12:10:08.638Z,2.97
2017-12-11T12:12:36.260Z,3.03
2017-12-11T12:15:03.887Z,3.20
2017-12-11T12:17:31.564Z,3.08
2017-12-11T12:19:59.317Z,3.60
2017-12-11T12:22:27.002Z,3.50
2017-12-11T12:24:54.616Z,3.08
2017-12-11T12:27:22.260Z,4.93
2017-12-11T12:29:49.933Z,3.97
2017-12-11T12:32:17.558Z,2.95
2017-12-11T12:34:45.338Z,3.62
2017-12-11T12:37:12.973Z,4.80
2017-12-11T12:39:40.590Z,4.43
2017-12-11T12:42:08.370Z,6.35
2017-12-11T12:44:36.010Z,6.22
2017-12-11T12:47:03.666Z,5.20
2017-12-11T12:49:31.561Z,6.22
2017-12-11T12:51:59.234Z,5.07
2017-12-11T12:54:26.873Z,6.45
2017-12-11T12:56:54.514Z,6.15
2017-12-11T12:59:22.160Z,4.75
2017-12-11T13:01:49.852Z,4.97
2017-12-11T13:04:17.508Z,5.50
2017-12-11T13:06:45.237Z,5.57
2017-12-11T13:09:12.851Z,5.25
2017-12-11T13:11:40.501Z,5.93
2017-12-11T13:14:08.241Z,5.00
2017-12-11T13:16:35.882Z,5.70
2017-12-11T13:19:03.535Z,5.15
2017-12-11T13:21:31.162Z,7.00
2017-12-11T13:23:58.837Z,5.50
2017-12-11T13:26:26.448Z,6.32
2017-12-11T13:28:54.087Z,5.75
2017-12-11T13:31:22.527Z,6.95
2017-12-11T13:33:50.154Z,8.50
2017-12-11T13:36:17.910Z,5.70
2017-12-11T13:38:45.529Z,6.50
2017-12-11T13:41:13.151Z,6.37
2017-12-11T13:43:41.606Z,6.25
2017-12-11T13:46:10.004Z,6.50
2017-12-11T13:48:37.747Z,6.65
2017-12-11T13:51:05.368Z,7.37
2017-12-11T13:53:32.985Z,6.35
2017-12-11T13:56:00.631Z,8.05
2017-12-11T13:58:28.296Z,7.20
2017-12-11T14:00:55.948Z,6.62
2017-12-11T14:03:24.326Z,8.48
2017-12-11T14:05:52.802Z,7.53
2017-12-11T14:08:20.442Z,7.43
2017-12-11T14:10:48.217Z,5.62
2017-12-11T14:13:16.678Z,7.47
2017-12-11T14:15:44.503Z,7.32
2017-12-11T14:18:12.886Z,7.20
2017-12-11T14:20:40.572Z,7.60
2017-12-11T14:23:08.291Z,6.75
2017-12-11T14:25:35.939Z,7.40
2017-12-11T14:28:03.560Z,7.65
2017-12-11T14:30:31.982Z,7.00
2017-12-11T14:32:59.668Z,8.93
2017-12-11T14:35:28.467Z,8.70
2017-12-11T14:37:56.184Z,7.55
2017-12-11T14:40:24.562Z,8.55
2017-12-11T14:42:52.182Z,8.25
2017-12-11T14:45:19.859Z,7.00
2017-12-11T14:47:47.497Z,8.05
2017-12-11T14:50:15.387Z,6.53
2017-12-11T14:52:43.007Z,7.30
2017-12-11T14:55:10.619Z,7.60
2017-12-11T14:57:38.426Z,8.35
2017-12-11T15:00:06.037Z,7.90
2017-12-11T15:02:35.150Z,6.80
2017-12-11T15:05:02.761Z,8.25
2017-12-11T15:07:31.145Z,8.70
2017-12-11T15:09:58.790Z,7.82
2017-12-11T15:12:26.431Z,7.30
2017-12-11T15:14:54.075Z,7.07
2017-12-11T15:17:21.708Z,6.35
2017-12-11T15:19:50.092Z,9.60
2017-12-11T15:22:17.786Z,7.25
2017-12-11T15:24:45.451Z,8.25
2017-12-11T15:27:13.116Z,7.87
2017-12-11T15:29:41.486Z,6.65
2017-12-11T15:32:09.999Z,6.20
2017-12-11T15:34:37.798Z,6.72
2017-12-11T15:37:06.221Z,6.75
2017-12-11T15:39:33.858Z,6.60
2017-12-11T15:42:01.527Z,6.50
2017-12-11T15:44:29.158Z,6.55
2017-12-11T15:46:56.817Z,7.47
2017-12-11T15:49:24.446Z,8.40
2017-12-11T15:51:52.140Z,7.15
2017-12-11T15:54:19.825Z,6.70
2017-12-11T15:56:47.492Z,6.97
2017-12-11T15:59:15.310Z,6.80
2017-12-11T16:01:43.244Z,6.45
2017-12-11T16:04:11.411Z,7.43
2017-12-11T16:06:39.619Z,6.82
2017-12-11T16:09:07.240Z,6.93
2017-12-11T16:11:34.882Z,6.82
2017-12-11T16:14:02.493Z,6.43
2017-12-11T16:16:30.259Z,6.50
2017-12-11T16:18:57.968Z,7.32
2017-12-11T16:21:25.618Z,6.18
2017-12-11T16:23:53.281Z,6.40
2017-12-11T16:26:21.670Z,6.80
2017-12-11T16:28:49.341Z,5.95
2017-12-11T16:31:17.093Z,7.35
2017-12-11T16:33:44.738Z,6.45
2017-12-11T16:36:12.379Z,7.32
2017-12-11T16:38:39.986Z,7.20
2017-12-11T16:41:08.482Z,7.15
2017-12-11T16:43:36.095Z,7.15
2017-12-11T16:46:04.489Z,7.07
2017-12-11T16:48:32.130Z,7.05
2017-12-11T16:50:59.774Z,7.05
2017-12-11T16:53:27.416Z,7.25
2017-12-11T16:55:55.047Z,7.53
2017-12-11T16:58:23.431Z,7.22
2017-12-11T17:00:51.142Z,6.15
2017-12-11T17:03:18.735Z,6.85
2017-12-11T17:05:46.390Z,7.32
2017-12-11T17:08:14.032Z,6.62
2017-12-11T17:10:41.637Z,6.82
2017-12-11T17:13:10.062Z,8.30
2017-12-11T17:15:37.714Z,7.50
2017-12-11T17:18:06.158Z,6.50
2017-12-11T17:20:33.770Z,6.05
2017-12-11T17:23:02.206Z,7.90
2017-12-11T17:25:29.828Z,6.30
2017-12-11T17:27:57.471Z,7.15
2017-12-11T17:30:25.118Z,6.55
2017-12-11T17:32:52.744Z,6.18
2017-12-11T17:35:22.294Z,5.93
2017-12-11T17:37:49.943Z,6.80
2017-12-11T17:40:18.381Z,5.85
2017-12-11T17:42:46.058Z,5.55
2017-12-11T17:45:13.663Z,5.65
2017-12-11T17:47:42.193Z,5.87
2017-12-11T17:50:09.865Z,7.03
2017-12-11T17:52:37.474Z,7.05
2017-12-11T17:55:05.885Z,5.90
2017-12-11T17:57:33.548Z,6.35
2017-12-11T18:00:01.198Z,6.32
2017-12-11T18:02:28.863Z,5.03
2017-12-11T18:04:57.241Z,5.30
2017-12-11T18:07:25.672Z,5.00
2017-12-11T18:09:53.291Z,5.15
2017-12-11T18:12:20.920Z,4.90
2017-12-11T18:14:49.413Z,5.50
2017-12-11T18:17:17.047Z,5.50
2017-12-11T18:19:44.795Z,4.60
2017-12-11T18:22:12.421Z,6.78
2017-12-11T18:24:40.070Z,6.10
2017-12-11T18:27:07.798Z,5.03
2017-12-11T18:29:36.165Z,5.25
2017-12-11T18:32:04.313Z,5.22
2017-12-11T18:34:31.922Z,6.45
2017-12-11T18:36:59.654Z,5.40
2017-12-11T18:39:27.330Z,5.60
2017-12-11T18:41:54.978Z,5.05
2017-12-11T18:44:22.647Z,5.57
2017-12-11T18:46:50.604Z,5.40
2017-12-11T18:49:19.031Z,5.60
2017-12-11T18:51:46.821Z,5.00
2017-12-11T18:54:15.215Z,4.95
2017-12-11T18:56:42.870Z,6.10
2017-12-11T18:59:10.513Z,6.07
2017-12-11T19:01:38.330Z,5.60
2017-12-11T19:04:06.777Z,6.28
2017-12-11T19:06:34.395Z,5.53
2017-12-11T19:09:02.060Z,6.00
2017-12-11T19:11:29.703Z,4.85
2017-12-11T19:13:57.341Z,5.80
2017-12-11T19:16:25.033Z,5.78
2017-12-11T19:18:53.422Z,6.20
2017-12-11T19:21:21.082Z,5.57
2017-12-11T19:23:48.791Z,5.87
2017-12-11T19:26:17.225Z,7.07
2017-12-11T19:28:44.892Z,5.40
2017-12-11T19:31:12.510Z,5.93
2017-12-11T19:33:40.162Z,6.32
2017-12-11T19:36:07.815Z,5.93
2017-12-11T19:38:36.232Z,5.22
2017-12-11T19:41:03.887Z,5.22
2017-12-11T19:43:31.518Z,6.80
2017-12-11T19:45:59.186Z,6.22
2017-12-11T19:48:26.831Z,5.45
2017-12-11T19:50:54.443Z,6.90
2017-12-11T19:53:22.358Z,6.18
2017-12-11T19:55:49.987Z,5.87
2017-12-11T19:58:17.649Z,5.95
2017-12-11T20:00:45.292Z,5.35
2017-12-11T20:03:13.028Z,5.37
2017-12-11T20:05:40.698Z,6.97
2017-12-11T20:08:08.559Z,4.93
2017-12-11T20:10:36.218Z,6.03
2017-12-11T20:13:03.865Z,5.03
2017-12-11T20:15:31.504Z,4.97
2017-12-11T20:18:00.262Z,5.43
2017-12-11T20:20:30.478Z,5.90
2017-12-11T20:22:58.931Z,5.50
2017-12-11T20:25:26.570Z,4.80
2017-12-11T20:27:54.348Z,5.60
2017-12-11T20:30:22.663Z,5.37
2017-12-11T20:32:50.274Z,4.60
2017-12-11T20:35:17.917Z,5.80
2017-12-11T20:37:46.295Z,5.25
2017-12-11T20:40:13.930Z,5.45
2017-12-11T20:42:42.353Z,5.12
2017-12-11T20:45:09.985Z,6.62
2017-12-11T20:47:37.788Z,5.28
2017-12-11T20:50:05.410Z,7.50
2017-12-11T20:52:33.025Z,6.22
2017-12-11T20:55:01.995Z,5.28
2017-12-11T20:57:29.644Z,5.53
2017-12-11T20:59:57.342Z,6.40
2017-12-11T21:02:25.726Z,5.62
2017-12-11T21:04:53.347Z,5.30
2017-12-11T21:07:21.010Z,5.70
2017-12-11T21:09:48.698Z,6.10
2017-12-11T21:12:16.348Z,6.82
2017-12-11T21:14:43.966Z,5.45
2017-12-11T21:17:11.598Z,6.55
2017-12-11T21:19:40.819Z,5.25
2017-12-11T21:22:08.623Z,6.45
2017-12-11T21:24:37.033Z,5.87
2017-12-11T21:27:04.658Z,5.80
2017-12-11T21:29:32.282Z,5.35
2017-12-11T21:32:00.085Z,4.90
2017-12-11T21:34:27.723Z,6.30
2017-12-11T21:36:56.367Z,5.55
2017-12-11T21:39:23.992Z,4.90
2017-12-11T21:41:52.423Z,7.25
2017-12-11T21:44:20.066Z,5.60
2017-12-11T21:46:47.761Z,5.32
2017-12-11T21:49:15.986Z,5.70
2017-12-11T21:51:43.607Z,6.55
2017-12-11T21:54:11.338Z,6.25
2017-12-11T21:56:39.165Z,5.75
2017-12-11T21:59:06.798Z,5.30
2017-12-11T22:01:35.217Z,6.32
2017-12-11T22:04:02.841Z,6.95
2017-12-11T22:06:30.470Z,6.05
2017-12-11T22:08:58.163Z,5.65
2017-12-11T22:11:25.770Z,6.68
2017-12-11T22:13:53.457Z,6.60
2017-12-11T22:16:21.100Z,6.97
2017-12-11T22:18:48.791Z,6.43
2017-12-11T22:21:17.272Z,6.18
2017-12-11T22:23:44.866Z,5.40
2017-12-11T22:26:12.533Z,5.30
2017-12-11T22:28:40.168Z,7.85
2017-12-11T22:31:07.793Z,6.90
2017-12-11T22:33:35.442Z,5.97
2017-12-11T22:36:03.087Z,5.15
2017-12-11T22:38:30.731Z,6.12
2017-12-11T22:40:58.393Z,6.50
2017-12-11T22:43:26.004Z,5.93
2017-12-11T22:45:53.673Z,6.53
2017-12-11T22:48:21.284Z,6.80
2017-12-11T22:50:48.944Z,5.80
2017-12-11T22:53:17.135Z,6.78
2017-12-11T22:55:44.748Z,7.00
2017-12-11T22:58:12.393Z,9.77
2017-12-11T23:00:40.002Z,7.20
2017-12-11T23:03:07.707Z,6.90
2017-12-11T23:05:35.482Z,6.47
2017-12-11T23:08:03.094Z,6.70
2017-12-11T23:10:30.755Z,8.02
2017-12-11T23:12:58.600Z,7.00
2017-12-11T23:15:26.242Z,5.55
2017-12-11T23:17:53.876Z,7.72
2017-12-11T23:20:21.510Z,9.48
2017-12-11T23:22:49.186Z,6.30
2017-12-11T23:25:16.810Z,5.70
2017-12-11T23:27:44.466Z,7.28
2017-12-11T23:30:12.086Z,18.02
2017-12-11T23:32:40.601Z,13.95
2017-12-11T23:35:08.890Z,11.77
2017-12-11T23:37:36.505Z,9.77
2017-12-11T23:40:04.156Z,5.93
2017-12-11T23:42:31.779Z,8.90
2017-12-11T23:44:59.377Z,10.50
2017-12-11T23:47:27.083Z,11.10
2017-12-11T23:49:54.698Z,6.40
2017-12-11T23:52:23.352Z,8.82
2017-12-11T23:54:51.079Z,5.60
2017-12-11T23:57:18.793Z,8.35
2017-12-11T23:59:46.455Z,8.43
